createdAt,value
2022-09-30T00:01:42.274Z,95458.48
2022-09-30T00:04:14.087Z,95456.67
2022-09-30T00:06:42.425Z,95455.58
2022-09-30T00:09:14.089Z,95453.11
2022-09-30T00:11:42.494Z,95449.21
2022-09-30T00:14:14.338Z,95446.87
2022-09-30T00:16:42.902Z,95438.98
2022-09-30T00:19:11.225Z,95436.02
2022-09-30T00:21:39.410Z,95433.78
2022-09-30T00:24:07.947Z,95426.58
2022-09-30T00:26:36.586Z,95428.89
2022-09-30T00:29:05.269Z,95422.22
2022-09-30T00:31:34.778Z,95426.83
2022-09-30T00:34:11.785Z,95430.70
2022-09-30T00:36:44.295Z,95423.70
2022-09-30T00:39:15.042Z,95421.83
2022-09-30T00:41:43.937Z,95422.40
2022-09-30T00:44:30.700Z,95425.75
2022-09-30T00:46:59.595Z,95430.58
2022-09-30T00:49:27.670Z,95436.83
2022-09-30T00:51:58.063Z,95437.48
2022-09-30T00:54:29.808Z,95429.10
2022-09-30T00:56:59.420Z,95431.39
2022-09-30T00:59:29.849Z,95439.05
2022-09-30T01:01:57.961Z,95440.27
2022-09-30T01:04:27.303Z,95444.07
2022-09-30T01:06:55.719Z,95451.19
2022-09-30T01:09:23.873Z,95453.44
2022-09-30T01:11:53.769Z,95452.08
2022-09-30T01:14:25.755Z,95456.64
2022-09-30T01:17:20.773Z,95454.61
2022-09-30T01:20:04.963Z,95454.64
2022-09-30T01:22:32.951Z,95446.64
2022-09-30T01:25:21.736Z,95444.95
2022-09-30T01:27:58.539Z,95439.20
2022-09-30T01:30:38.542Z,95437.73
2022-09-30T01:33:15.877Z,95440.09
2022-09-30T01:35:51.354Z,95442.02
2022-09-30T01:38:19.998Z,95437.77
2022-09-30T01:40:48.236Z,95443.53
2022-09-30T01:43:51.629Z,95452.32
2022-09-30T01:46:20.975Z,95455.25
2022-09-30T01:48:55.169Z,95458.96
2022-09-30T01:51:38.896Z,95460.90
2022-09-30T01:54:20.810Z,95466.40
2022-09-30T01:56:52.158Z,95467.71
2022-09-30T01:59:35.359Z,95471.23
2022-09-30T02:02:21.762Z,95472.95
2022-09-30T02:04:57.699Z,95472.66
2022-09-30T02:07:30.811Z,95468.42
2022-09-30T02:10:01.614Z,95471.63
2022-09-30T02:12:34.052Z,95469.51
2022-09-30T02:15:06.495Z,95473.09
2022-09-30T02:17:46.906Z,95474.43
2022-09-30T02:20:24.624Z,95472.46
2022-09-30T02:22:57.233Z,95470.15
2022-09-30T02:25:30.121Z,95473.70
2022-09-30T02:28:05.308Z,95468.33
2022-09-30T02:30:35.868Z,95469.02
2022-09-30T02:33:07.906Z,95469.75
2022-09-30T02:35:38.948Z,95470.73
2022-09-30T02:38:11.311Z,95464.01
2022-09-30T02:40:43.988Z,95464.35
2022-09-30T02:43:11.928Z,95470.68
2022-09-30T02:46:03.231Z,95468.52
2022-09-30T02:48:43.304Z,95464.73
2022-09-30T02:51:15.816Z,95472.63
2022-09-30T02:53:49.278Z,95470.23
2022-09-30T02:56:17.307Z,95477.81
2022-09-30T02:58:45.653Z,95471.36
2022-09-30T03:01:15.047Z,95469.03
2022-09-30T03:03:57.368Z,95473.02
2022-09-30T03:06:25.901Z,95471.14
2022-09-30T03:08:54.105Z,95476.73
2022-09-30T03:11:26.639Z,95476.29
2022-09-30T03:14:00.770Z,95477.11
2022-09-30T03:16:44.047Z,95473.00
2022-09-30T03:19:34.675Z,95471.92
2022-09-30T03:22:05.298Z,95477.64
2022-09-30T03:24:33.358Z,95479.89
2022-09-30T03:27:09.007Z,95482.50
2022-09-30T03:29:37.098Z,95479.09
2022-09-30T03:32:05.083Z,95477.55
2022-09-30T03:34:57.951Z,95473.98
2022-09-30T03:37:45.603Z,95475.73
2022-09-30T03:40:31.873Z,95475.81
2022-09-30T03:43:25.974Z,95472.11
2022-09-30T03:46:01.835Z,95477.95
2022-09-30T03:48:32.027Z,95474.67
2022-09-30T03:51:01.391Z,95475.98
2022-09-30T03:53:29.512Z,95479.80
2022-09-30T03:55:57.421Z,95482.14
2022-09-30T03:58:25.762Z,95485.37
2022-09-30T04:00:54.536Z,95491.14
2022-09-30T04:03:23.568Z,95493.07
2022-09-30T04:05:51.771Z,95489.96
2022-09-30T04:08:20.241Z,95496.73
2022-09-30T04:10:48.192Z,95498.99
2022-09-30T04:13:16.335Z,95496.54
2022-09-30T04:15:44.440Z,95496.54
2022-09-30T04:18:12.611Z,95500.77
2022-09-30T04:20:40.763Z,95496.77
2022-09-30T04:23:08.810Z,95497.02
2022-09-30T04:25:36.858Z,95498.24
2022-09-30T04:28:05.873Z,95499.42
2022-09-30T04:30:33.966Z,95498.84
2022-09-30T04:33:02.000Z,95502.81
2022-09-30T04:35:30.184Z,95502.42
2022-09-30T04:37:58.230Z,95506.15
2022-09-30T04:40:26.323Z,95509.41
2022-09-30T04:42:58.254Z,95513.57
2022-09-30T04:45:26.838Z,95513.38
2022-09-30T04:47:54.996Z,95517.11
2022-09-30T04:50:22.955Z,95516.88
2022-09-30T04:52:51.704Z,95519.20
2022-09-30T04:55:19.932Z,95518.14
2022-09-30T04:57:49.406Z,95520.21
2022-09-30T05:00:17.478Z,95520.05
2022-09-30T05:02:45.696Z,95521.75
2022-09-30T05:05:14.334Z,95517.78
2022-09-30T05:07:42.857Z,95518.16
2022-09-30T05:10:11.345Z,95516.71
2022-09-30T05:12:41.168Z,95516.03
2022-09-30T05:15:10.009Z,95519.26
2022-09-30T05:17:38.012Z,95519.23
2022-09-30T05:20:10.939Z,95521.56
2022-09-30T05:22:39.044Z,95524.55
2022-09-30T05:25:07.258Z,95534.02
2022-09-30T05:27:35.557Z,95532.00
2022-09-30T05:30:03.997Z,95532.70
2022-09-30T05:32:32.073Z,95531.66
2022-09-30T05:35:00.097Z,95530.69
2022-09-30T05:37:28.107Z,95534.70
2022-09-30T05:39:56.126Z,95534.44
2022-09-30T05:42:24.227Z,95535.92
2022-09-30T05:44:52.524Z,95537.05
2022-09-30T05:47:20.526Z,95535.77
2022-09-30T05:49:50.381Z,95533.51
2022-09-30T05:52:22.344Z,95541.70
2022-09-30T05:54:50.743Z,95542.30
2022-09-30T05:57:18.753Z,95542.70
2022-09-30T05:59:47.399Z,95542.20
2022-09-30T06:02:15.507Z,95542.73
2022-09-30T06:04:43.739Z,95542.59
2022-09-30T06:07:11.765Z,95546.12
2022-09-30T06:09:40.129Z,95544.87
2022-09-30T06:12:08.371Z,95551.86
2022-09-30T06:14:36.351Z,95551.11
2022-09-30T06:17:06.513Z,95553.95
2022-09-30T06:19:34.633Z,95553.00
2022-09-30T06:22:02.644Z,95559.98
2022-09-30T06:24:31.213Z,95560.96
2022-09-30T06:26:59.203Z,95557.64
2022-09-30T06:29:27.272Z,95553.88
2022-09-30T06:31:55.311Z,95555.24
2022-09-30T06:34:23.903Z,95554.13
2022-09-30T06:36:52.062Z,95552.98
2022-09-30T06:39:20.400Z,95552.27
2022-09-30T06:41:48.516Z,95552.19
2022-09-30T06:44:25.532Z,95551.59
2022-09-30T06:46:54.363Z,95555.80
2022-09-30T06:49:22.560Z,95559.80
2022-09-30T06:51:51.777Z,95555.75
2022-09-30T06:54:21.109Z,95556.09
2022-09-30T06:56:49.921Z,95555.03
2022-09-30T06:59:18.099Z,95555.76
2022-09-30T07:01:46.457Z,95555.05
2022-09-30T07:04:14.699Z,95559.86
2022-09-30T07:06:42.896Z,95561.36
2022-09-30T07:09:11.643Z,95563.82
2022-09-30T07:11:39.905Z,95566.80
2022-09-30T07:14:09.056Z,95569.65
2022-09-30T07:16:37.026Z,95570.86
2022-09-30T07:19:05.159Z,95571.11
2022-09-30T07:21:33.418Z,95577.13
2022-09-30T07:24:01.658Z,95574.23
2022-09-30T07:26:30.179Z,95572.58
2022-09-30T07:29:00.158Z,95577.61
2022-09-30T07:31:33.483Z,95577.30
2022-09-30T07:34:04.087Z,95583.47
2022-09-30T07:36:34.154Z,95584.22
2022-09-30T07:39:06.014Z,95586.96
2022-09-30T07:41:36.707Z,95585.84
2022-09-30T07:44:06.673Z,95587.95
2022-09-30T07:46:36.377Z,95592.86
2022-09-30T07:49:06.299Z,95594.34
2022-09-30T07:51:35.754Z,95596.66
2022-09-30T07:54:14.580Z,95597.13
2022-09-30T07:57:10.227Z,95598.95
2022-09-30T07:59:34.280Z,95602.66
2022-09-30T08:02:02.576Z,95604.39
2022-09-30T08:04:30.771Z,95604.48
2022-09-30T08:07:00.767Z,95607.71
2022-09-30T08:09:30.005Z,95608.44
2022-09-30T08:11:58.949Z,95610.81
2022-09-30T08:14:28.000Z,95606.59
2022-09-30T08:16:58.527Z,95610.07
2022-09-30T08:19:27.735Z,95607.40
2022-09-30T08:21:56.156Z,95611.36
2022-09-30T08:24:25.129Z,95609.91
2022-09-30T08:26:53.607Z,95610.38
2022-09-30T08:29:42.549Z,95609.59
2022-09-30T08:32:09.965Z,95611.38
2022-09-30T08:34:38.028Z,95615.02
2022-09-30T08:37:09.259Z,95615.14
2022-09-30T08:39:38.707Z,95619.64
2022-09-30T08:42:36.232Z,95618.36
2022-09-30T08:45:16.710Z,95618.56
2022-09-30T08:48:03.260Z,95613.95
2022-09-30T08:50:43.791Z,95610.56
2022-09-30T08:53:15.865Z,95610.42
2022-09-30T08:55:45.519Z,95612.19
2022-09-30T08:58:27.814Z,95609.00
2022-09-30T09:00:58.648Z,95610.54
2022-09-30T09:03:29.372Z,95610.59
2022-09-30T09:06:03.924Z,95608.72
2022-09-30T09:08:34.871Z,95607.50
2022-09-30T09:11:10.273Z,95610.91
2022-09-30T09:13:44.455Z,95612.48
2022-09-30T09:16:48.171Z,95618.39
2022-09-30T09:19:17.921Z,95610.59
2022-09-30T09:22:01.989Z,95612.05
2022-09-30T09:24:50.921Z,95611.84
2022-09-30T09:27:20.521Z,95613.63
2022-09-30T09:30:08.551Z,95614.90
2022-09-30T09:32:37.034Z,95615.11
2022-09-30T09:35:16.804Z,95611.36
2022-09-30T09:38:25.150Z,95616.76
2022-09-30T09:41:00.252Z,95616.33
2022-09-30T09:43:41.080Z,95619.84
2022-09-30T09:46:14.926Z,95618.19
2022-09-30T09:48:45.156Z,95619.48
2022-09-30T09:51:19.444Z,95620.05
2022-09-30T09:53:48.743Z,95622.98
2022-09-30T09:56:19.137Z,95616.77
2022-09-30T09:59:05.961Z,95617.94
2022-09-30T10:01:34.702Z,95617.23
2022-09-30T10:04:11.691Z,95620.95
2022-09-30T10:07:03.062Z,95624.54
2022-09-30T10:09:31.267Z,95623.95
2022-09-30T10:12:08.247Z,95625.19
2022-09-30T10:14:46.553Z,95629.25
2022-09-30T10:17:21.861Z,95631.88
2022-09-30T10:19:52.574Z,95634.98
2022-09-30T10:22:25.284Z,95638.80
2022-09-30T10:25:09.127Z,95636.83
2022-09-30T10:27:37.266Z,95640.61
2022-09-30T10:30:06.032Z,95647.98
2022-09-30T10:32:34.239Z,95647.36
2022-09-30T10:35:17.936Z,95648.66
2022-09-30T10:37:53.550Z,95650.48
2022-09-30T10:40:23.633Z,95656.30
2022-09-30T10:42:51.730Z,95657.75
2022-09-30T10:45:32.247Z,95657.84
2022-09-30T10:48:03.341Z,95658.60
2022-09-30T10:50:31.509Z,95662.20
2022-09-30T10:53:02.346Z,95664.14
2022-09-30T10:55:32.981Z,95662.70
2022-09-30T10:58:23.582Z,95669.36
2022-09-30T11:01:14.898Z,95671.98
2022-09-30T11:03:54.440Z,95675.31
2022-09-30T11:06:24.908Z,95677.54
2022-09-30T11:09:00.126Z,95678.35
2022-09-30T11:11:33.639Z,95679.34
2022-09-30T11:14:28.324Z,95680.35
2022-09-30T11:17:05.737Z,95681.48
2022-09-30T11:19:38.145Z,95682.66
2022-09-30T11:22:06.939Z,95682.80
2022-09-30T11:24:37.918Z,95685.43
2022-09-30T11:27:35.241Z,95686.77
2022-09-30T11:30:13.775Z,95686.40
2022-09-30T11:32:51.154Z,95685.82
2022-09-30T11:35:28.124Z,95689.98
2022-09-30T11:38:10.652Z,95691.41
2022-09-30T11:40:38.676Z,95692.44
2022-09-30T11:43:18.691Z,95693.20
2022-09-30T11:45:58.842Z,95694.29
2022-09-30T11:48:33.131Z,95698.73
2022-09-30T11:51:26.813Z,95699.04
2022-09-30T11:53:54.708Z,95701.78
2022-09-30T11:56:32.901Z,95700.16
2022-09-30T11:59:03.865Z,95702.79
2022-09-30T12:01:34.636Z,95702.65
2022-09-30T12:04:06.710Z,95699.75
2022-09-30T12:06:36.591Z,95704.64
2022-09-30T12:09:21.158Z,95704.77
2022-09-30T12:11:52.484Z,95703.24
2022-09-30T12:14:26.552Z,95705.95
2022-09-30T12:16:56.940Z,95707.09
2022-09-30T12:19:35.478Z,95706.73
2022-09-30T12:22:03.388Z,95704.63
2022-09-30T12:24:38.938Z,95707.86
2022-09-30T12:27:34.209Z,95704.27
2022-09-30T12:30:17.985Z,95709.16
2022-09-30T12:32:52.118Z,95711.88
2022-09-30T12:35:20.050Z,95712.67
2022-09-30T12:38:12.483Z,95715.26
2022-09-30T12:40:43.266Z,95716.13
2022-09-30T12:43:26.346Z,95720.05
2022-09-30T12:46:00.508Z,95719.27
2022-09-30T12:48:41.690Z,95719.75
2022-09-30T12:51:11.231Z,95720.14
2022-09-30T12:53:40.798Z,95726.20
2022-09-30T12:56:10.404Z,95725.90
2022-09-30T12:58:44.034Z,95733.23
2022-09-30T13:01:13.290Z,95733.41
2022-09-30T13:04:04.691Z,95735.46
2022-09-30T13:06:47.637Z,95736.48
2022-09-30T13:09:16.370Z,95735.99
2022-09-30T13:11:45.579Z,95740.52
2022-09-30T13:14:13.729Z,95741.33
2022-09-30T13:17:03.718Z,95744.48
2022-09-30T13:19:42.190Z,95749.77
2022-09-30T13:22:19.111Z,95756.48
2022-09-30T13:25:05.642Z,95756.28
2022-09-30T13:27:47.772Z,95759.13
2022-09-30T13:30:15.845Z,95763.80
2022-09-30T13:32:45.887Z,95764.72
2022-09-30T13:35:35.236Z,95771.14
2022-09-30T13:38:29.347Z,95773.64
2022-09-30T13:41:03.299Z,95774.84
2022-09-30T13:43:44.003Z,95775.20
2022-09-30T13:46:24.270Z,95775.69
2022-09-30T13:48:55.653Z,95775.30
2022-09-30T13:51:28.628Z,95772.42
2022-09-30T13:53:59.006Z,95773.64
2022-09-30T13:56:33.499Z,95771.66
2022-09-30T13:59:06.853Z,95767.92
2022-09-30T14:01:53.833Z,95765.74
2022-09-30T14:04:58.959Z,95763.80
2022-09-30T14:07:26.979Z,95764.91
2022-09-30T14:10:14.070Z,95764.63
2022-09-30T14:12:49.635Z,95770.77
2022-09-30T14:15:37.529Z,95780.59
2022-09-30T14:18:24.450Z,95782.02
2022-09-30T14:21:10.769Z,95782.95
2022-09-30T14:23:38.812Z,95786.70
2022-09-30T14:26:25.485Z,95785.46
2022-09-30T14:29:02.346Z,95780.88
2022-09-30T14:31:34.160Z,95788.67
2022-09-30T14:34:02.401Z,95788.29
2022-09-30T14:36:30.688Z,95788.51
2022-09-30T14:38:59.740Z,95786.85
2022-09-30T14:41:32.033Z,95788.85
2022-09-30T14:44:05.108Z,95787.02
2022-09-30T14:46:39.063Z,95787.98
2022-09-30T14:49:09.920Z,95783.98
2022-09-30T14:51:43.565Z,95788.46
2022-09-30T14:54:19.404Z,95798.55
2022-09-30T14:56:48.393Z,95803.29
2022-09-30T14:59:18.818Z,95805.89
2022-09-30T15:01:49.270Z,95808.09
2022-09-30T15:04:19.466Z,95811.94
2022-09-30T15:06:49.844Z,95811.73
2022-09-30T15:09:23.163Z,95817.41
2022-09-30T15:11:51.342Z,95814.80
2022-09-30T15:14:23.819Z,95810.52
2022-09-30T15:16:56.216Z,95812.44
2022-09-30T15:19:26.149Z,95812.94
2022-09-30T15:21:55.315Z,95807.23
2022-09-30T15:24:26.049Z,95808.48
2022-09-30T15:26:55.719Z,95817.17
2022-09-30T15:29:24.288Z,95820.38
2022-09-30T15:32:01.289Z,95830.35
2022-09-30T15:34:30.641Z,95834.43
2022-09-30T15:37:04.600Z,95834.31
2022-09-30T15:39:54.334Z,95838.33
2022-09-30T15:42:28.994Z,95841.80
2022-09-30T15:44:59.413Z,95848.13
2022-09-30T15:47:28.420Z,95857.91
2022-09-30T15:49:56.438Z,95855.39
2022-09-30T15:52:36.888Z,95858.56
2022-09-30T15:55:25.387Z,95866.90
2022-09-30T15:57:53.381Z,95868.98
2022-09-30T16:00:35.962Z,95861.20
2022-09-30T16:03:19.182Z,95858.27
2022-09-30T16:05:51.923Z,95853.94
2022-09-30T16:08:25.209Z,95851.52
2022-09-30T16:10:55.430Z,95861.94
2022-09-30T16:13:26.446Z,95867.92
2022-09-30T16:15:55.552Z,95859.42
2022-09-30T16:18:32.693Z,95863.20
2022-09-30T16:21:05.551Z,95866.36
2022-09-30T16:23:38.203Z,95865.62
2022-09-30T16:26:12.998Z,95865.98
2022-09-30T16:28:41.402Z,95866.88
2022-09-30T16:31:10.123Z,95872.11
2022-09-30T16:33:41.072Z,95879.45
2022-09-30T16:36:10.547Z,95884.39
2022-09-30T16:38:38.946Z,95885.83
2022-09-30T16:41:10.039Z,95888.77
2022-09-30T16:43:39.157Z,95897.56
2022-09-30T16:46:09.081Z,95903.05
2022-09-30T16:48:38.496Z,95906.86
2022-09-30T16:51:08.180Z,95906.93
2022-09-30T16:53:37.748Z,95907.20
2022-09-30T16:56:06.202Z,95911.09
2022-09-30T16:58:34.523Z,95917.71
2022-09-30T17:01:02.565Z,95917.55
2022-09-30T17:03:31.216Z,95908.86
2022-09-30T17:05:59.972Z,95906.41
2022-09-30T17:08:28.073Z,95906.47
2022-09-30T17:10:57.929Z,95906.16
2022-09-30T17:13:26.215Z,95908.98
2022-09-30T17:15:55.169Z,95915.85
2022-09-30T17:18:23.183Z,95921.41
2022-09-30T17:20:53.173Z,95918.45
2022-09-30T17:23:22.975Z,95910.77
2022-09-30T17:25:51.463Z,95906.19
2022-09-30T17:28:19.637Z,95906.39
2022-09-30T17:30:49.165Z,95909.64
2022-09-30T17:33:19.429Z,95917.51
2022-09-30T17:35:59.599Z,95911.76
2022-09-30T17:38:28.317Z,95908.83
2022-09-30T17:41:15.307Z,95916.27
2022-09-30T17:43:45.524Z,95917.40
2022-09-30T17:46:18.640Z,95921.96
2022-09-30T17:48:46.847Z,95935.70
2022-09-30T17:51:18.287Z,95938.66
2022-09-30T17:53:47.079Z,95941.00
2022-09-30T17:56:20.197Z,95947.73
2022-09-30T17:58:50.704Z,95950.23
2022-09-30T18:01:20.791Z,95959.05
2022-09-30T18:03:53.054Z,95960.95
2022-09-30T18:06:21.257Z,95963.16
2022-09-30T18:08:50.242Z,95962.79
2022-09-30T18:11:26.187Z,95969.19
2022-09-30T18:13:55.920Z,95973.88
2022-09-30T18:16:24.830Z,95977.55
2022-09-30T18:18:52.959Z,95976.48
2022-09-30T18:21:21.078Z,95978.61
2022-09-30T18:23:51.865Z,95979.48
2022-09-30T18:26:20.233Z,95982.16
2022-09-30T18:28:49.535Z,95979.29
2022-09-30T18:31:28.503Z,95974.16
2022-09-30T18:33:57.165Z,95979.20
2022-09-30T18:36:37.497Z,95980.04
2022-09-30T18:39:06.263Z,95977.05
2022-09-30T18:41:36.030Z,95980.51
2022-09-30T18:44:05.085Z,95977.23
2022-09-30T18:46:33.467Z,95981.23
2022-09-30T18:49:02.079Z,95982.91
2022-09-30T18:51:30.821Z,95978.59
2022-09-30T18:54:00.826Z,95980.31
2022-09-30T18:56:32.182Z,95980.81
2022-09-30T18:59:04.442Z,95984.64
2022-09-30T19:01:34.779Z,95986.02
2022-09-30T19:04:04.154Z,95988.27
2022-09-30T19:06:33.006Z,95985.48
2022-09-30T19:09:01.261Z,95989.80
2022-09-30T19:11:30.701Z,95990.27
2022-09-30T19:14:02.438Z,95990.98
2022-09-30T19:16:36.632Z,95993.94
2022-09-30T19:19:10.579Z,95989.74
2022-09-30T19:21:39.406Z,95987.86
2022-09-30T19:24:08.495Z,95983.17
2022-09-30T19:26:38.014Z,95981.44
2022-09-30T19:29:07.304Z,95982.52
2022-09-30T19:31:37.106Z,95981.64
2022-09-30T19:34:06.566Z,95982.48
2022-09-30T19:36:45.458Z,95980.60
2022-09-30T19:39:15.921Z,95979.39
2022-09-30T19:41:46.301Z,95980.90
2022-09-30T19:44:18.871Z,95979.55
2022-09-30T19:46:50.424Z,95980.70
2022-09-30T19:49:18.499Z,95984.49
2022-09-30T19:51:46.728Z,95983.77
2022-09-30T19:54:14.768Z,95987.75
2022-09-30T19:56:42.812Z,95993.56
2022-09-30T19:59:11.286Z,95997.55
2022-09-30T20:02:12.654Z,95999.96
2022-09-30T20:04:42.786Z,95996.20
2022-09-30T20:07:11.079Z,95992.61
2022-09-30T20:09:39.253Z,95990.30
2022-09-30T20:12:07.912Z,95986.39
2022-09-30T20:14:54.612Z,95982.67
2022-09-30T20:17:23.122Z,95985.90
2022-09-30T20:20:09.965Z,95990.27
2022-09-30T20:22:38.003Z,95990.20
2022-09-30T20:25:06.717Z,95998.77
2022-09-30T20:27:34.746Z,95997.06
2022-09-30T20:30:03.356Z,96003.19
2022-09-30T20:32:31.551Z,96005.02
2022-09-30T20:34:59.643Z,96006.19
2022-09-30T20:37:27.578Z,96009.30
2022-09-30T20:39:56.765Z,96000.82
2022-09-30T20:42:32.346Z,95999.56
2022-09-30T20:45:03.139Z,96002.85
2022-09-30T20:47:31.743Z,96003.35
2022-09-30T20:49:59.797Z,96002.02
2022-09-30T20:52:28.906Z,96003.70
2022-09-30T20:55:00.589Z,96003.17
2022-09-30T20:57:32.577Z,96002.61
2022-09-30T21:00:01.875Z,96005.44
2022-09-30T21:02:30.464Z,96007.14
2022-09-30T21:04:58.742Z,96009.77
2022-09-30T21:07:27.060Z,96011.05
2022-09-30T21:09:55.159Z,96013.56
2022-09-30T21:12:23.268Z,96008.08
2022-09-30T21:14:51.291Z,96010.65
2022-09-30T21:17:19.299Z,96007.80
2022-09-30T21:19:47.491Z,96009.60
2022-09-30T21:22:17.264Z,96006.61
2022-09-30T21:24:45.352Z,96005.27
2022-09-30T21:27:14.057Z,96004.11
2022-09-30T21:29:43.820Z,96006.83
2022-09-30T21:32:11.941Z,96003.74
2022-09-30T21:34:40.093Z,96001.58
2022-09-30T21:37:08.327Z,96003.41
2022-09-30T21:39:36.405Z,96002.05
2022-09-30T21:42:04.611Z,96002.44
2022-09-30T21:44:32.608Z,96004.55
2022-09-30T21:47:00.650Z,96000.58
2022-09-30T21:49:28.838Z,95999.55
2022-09-30T21:51:56.835Z,95998.98
2022-09-30T21:54:24.892Z,96001.53
2022-09-30T21:56:53.589Z,95998.94
2022-09-30T21:59:21.695Z,95998.27
2022-09-30T22:01:49.727Z,96000.49
2022-09-30T22:04:19.706Z,95999.73
2022-09-30T22:06:48.011Z,96002.31
2022-09-30T22:09:16.015Z,96002.17
2022-09-30T22:11:44.416Z,96002.01
2022-09-30T22:14:12.508Z,96001.95
2022-09-30T22:16:41.062Z,95999.58
2022-09-30T22:19:09.111Z,95992.48
2022-09-30T22:21:37.784Z,95994.55
2022-09-30T22:24:07.074Z,95992.00
2022-09-30T22:26:36.694Z,95993.23
2022-09-30T22:29:06.037Z,95990.95
2022-09-30T22:31:34.947Z,95992.36
2022-09-30T22:34:23.301Z,95989.63
2022-09-30T22:37:10.085Z,95987.59
2022-09-30T22:39:38.062Z,95992.16
2022-09-30T22:42:07.397Z,95991.99
2022-09-30T22:44:36.562Z,95993.73
2022-09-30T22:47:05.124Z,95996.74
2022-09-30T22:49:33.437Z,95994.05
2022-09-30T22:52:04.230Z,95991.52
2022-09-30T22:54:33.664Z,95995.38
2022-09-30T22:57:01.943Z,95991.77
2022-09-30T22:59:30.291Z,95991.27
2022-09-30T23:01:58.402Z,95995.45
2022-09-30T23:04:27.042Z,95995.64
2022-09-30T23:06:58.137Z,95996.35
2022-09-30T23:09:26.086Z,95998.78
2022-09-30T23:11:55.047Z,95997.25
2022-09-30T23:14:23.848Z,95996.78
2022-09-30T23:16:51.970Z,95995.46
2022-09-30T23:19:20.006Z,95998.09
2022-09-30T23:21:48.060Z,96002.52
2022-09-30T23:24:16.112Z,96007.11
2022-09-30T23:26:45.423Z,96000.77
2022-09-30T23:29:14.128Z,96003.27
2022-09-30T23:31:42.240Z,96001.13
2022-09-30T23:34:10.347Z,96000.50
2022-09-30T23:36:38.259Z,95999.55
2022-09-30T23:39:12.441Z,95998.13
2022-09-30T23:41:40.518Z,95994.51
2022-09-30T23:44:10.098Z,95992.88
2022-09-30T23:46:38.091Z,95995.23
2022-09-30T23:49:06.139Z,95996.31
2022-09-30T23:51:34.700Z,95995.63
2022-09-30T23:54:03.126Z,95993.05
2022-09-30T23:56:32.231Z,95986.64
2022-09-30T23:59:00.282Z,95988.06
